.
WxDataArchive / Data Records for 2013-05-20
2013-05-19 May 2013 2013-05-21

Data Records for Monday, 20 May 2013

Time	Temp	Chill	HIndex	Humid	Dewpt	 Wind 	HiWind	WindDir	Rain 	Barom 
-----	----	-----	------	-----	-----	------	------	-------	-----	----- 
00:00	73.2	73.2	73.2	66	61.1	0	0	---	0.00	29.864 
00:05	73.0	73.0	73.0	66	61.0	0	1	112	0.00	29.864 
00:10	72.8	72.8	72.8	67	61.2	0	1	112	0.00	29.864 
00:15	72.8	72.8	72.8	67	61.2	0	1	112	0.00	29.865 
00:20	72.8	72.8	72.8	68	61.6	0	1	112	0.00	29.865 
00:25	72.8	72.8	72.8	68	61.6	0	1	112	0.00	29.865 
00:30	72.7	72.7	72.7	68	61.5	0	1	112	0.00	29.865 
00:35	72.7	72.7	72.7	69	61.9	0	0	---	0.00	29.865 
00:40	72.3	72.3	72.3	70	62.0	0	0	---	0.00	29.865 
00:45	72.0	72.0	72.0	71	62.1	0	1	112	0.00	29.866 
00:50	71.6	71.6	71.6	72	62.1	0	2	112	0.00	29.866 
00:55	71.5	71.5	71.5	72	62.0	0	0	---	0.00	29.866 
01:00	71.3	71.3	71.3	73	62.2	0	1	112	0.00	29.862 
01:05	71.3	71.3	71.3	73	62.2	0	2	112	0.00	29.862 
01:10	71.3	71.3	71.3	73	62.2	0	1	112	0.00	29.862 
01:15	71.3	71.3	71.3	73	62.2	0	1	112	0.00	29.858 
01:20	71.3	71.3	71.3	73	62.2	0	2	112	0.00	29.858 
01:25	71.3	71.3	71.3	73	62.2	0	1	112	0.00	29.858 
01:30	71.5	71.5	71.5	73	62.4	0	2	112	0.00	29.852 
01:35	71.5	71.5	71.5	73	62.4	0	2	112	0.00	29.852 
01:40	71.5	71.5	71.5	73	62.4	0	1	112	0.00	29.852 
01:45	71.5	71.5	71.5	73	62.4	0	2	112	0.00	29.856 
01:50	71.3	71.3	71.3	73	62.2	0	1	112	0.00	29.856 
01:55	71.3	71.3	71.3	73	62.2	0	2	112	0.00	29.856 
02:00	71.3	71.3	71.3	73	62.2	0	1	112	0.00	29.856 
02:05	71.3	71.3	71.3	74	62.6	0	2	112	0.00	29.856 
02:10	71.1	71.1	71.1	74	62.4	0	1	112	0.00	29.856 
02:15	71.1	71.1	71.1	74	62.4	0	1	112	0.00	29.854 
02:20	70.9	70.9	70.9	74	62.2	0	0	---	0.00	29.854 
02:25	70.8	70.8	70.8	75	62.5	0	0	---	0.00	29.854 
02:30	70.6	70.6	70.6	75	62.3	0	1	112	0.00	29.857 
02:35	70.6	70.6	70.6	75	62.3	0	1	112	0.00	29.857 
02:40	70.4	70.4	70.4	76	62.5	0	0	---	0.00	29.857 
02:45	70.3	70.3	70.3	76	62.4	0	0	---	0.00	29.854 
02:50	69.9	69.9	69.9	77	62.3	0	0	---	0.00	29.854 
02:55	69.8	69.8	69.8	77	62.3	0	0	---	0.00	29.854 
03:00	69.6	69.6	69.6	78	62.4	0	1	112	0.00	29.848 
03:05	69.6	69.6	69.6	78	62.4	0	1	112	0.00	29.848 
03:10	69.6	69.6	69.6	78	62.4	0	1	112	0.00	29.848 
03:15	69.6	69.6	69.6	78	62.4	0	1	112	0.00	29.847 
03:20	69.6	69.6	69.6	78	62.4	0	1	112	0.00	29.847 
03:25	69.4	69.4	69.4	78	62.2	0	0	---	0.00	29.847 
03:30	69.4	69.4	69.4	79	62.6	0	1	112	0.00	29.847 
03:35	69.6	69.6	69.6	79	62.8	0	0	---	0.00	29.847 
03:40	69.6	69.6	69.6	79	62.8	0	1	112	0.00	29.847 
03:45	69.6	69.6	69.6	79	62.8	0	1	112	0.00	29.847 
03:50	69.6	69.6	69.6	79	62.8	0	2	112	0.00	29.847 
03:55	69.6	69.6	69.6	79	62.8	0	1	112	0.00	29.847 
04:00	69.6	69.6	69.6	79	62.8	0	2	112	0.00	29.846 
04:05	69.6	69.6	69.6	79	62.8	0	1	112	0.00	29.846 
04:10	69.8	69.8	69.8	79	63.0	0	0	---	0.00	29.846 
04:15	69.8	69.8	69.8	79	63.0	0	1	112	0.00	29.851 
04:20	69.6	69.6	69.6	80	63.1	0	0	---	0.00	29.851 
04:25	69.6	69.6	69.6	80	63.1	0	0	---	0.00	29.851 
04:30	69.4	69.4	69.4	80	63.0	0	0	---	0.00	29.853 
04:35	69.4	69.4	69.4	81	63.3	0	0	---	0.00	29.853 
04:40	69.4	69.4	69.4	81	63.3	0	0	---	0.00	29.853 
04:45	69.4	69.4	69.4	81	63.3	0	0	---	0.00	29.863 
04:50	69.4	69.4	69.4	81	63.3	0	0	---	0.00	29.863 
04:55	69.4	69.4	69.4	82	63.7	0	1	112	0.00	29.863 
05:00	69.6	69.6	69.6	82	63.9	0	2	112	0.00	29.856 
05:05	69.6	69.6	69.6	82	63.9	0	1	112	0.00	29.856 
05:10	69.6	69.6	69.6	82	63.9	0	0	---	0.00	29.856 
05:15	69.6	69.6	69.6	82	63.9	0	1	112	0.00	29.858 
05:20	69.6	69.6	69.6	82	63.9	0	1	112	0.00	29.858 
05:25	69.6	69.6	69.6	82	63.9	0	0	---	0.00	29.858 
05:30	69.6	69.6	69.6	82	63.9	0	1	112	0.00	29.853 
05:35	69.6	69.6	69.6	82	63.9	0	0	---	0.00	29.853 
05:40	69.6	69.6	69.6	83	64.2	0	1	112	0.00	29.853 
05:45	69.4	69.4	69.4	83	64.0	0	1	112	0.00	29.847 
05:50	69.4	69.4	69.4	83	64.0	0	2	112	0.00	29.847 
05:55	69.4	69.4	69.4	84	64.3	0	1	112	0.00	29.847 
06:00	69.4	69.4	69.4	84	64.3	0	1	112	0.00	29.845 
06:05	69.3	69.3	69.3	84	64.2	0	1	112	0.00	29.845 
06:10	69.3	69.3	69.3	84	64.2	0	1	112	0.00	29.845 
06:15	69.3	69.3	69.3	85	64.6	0	1	112	0.00	29.846 
06:20	69.1	69.1	69.1	85	64.4	0	1	112	0.00	29.846 
06:25	69.1	69.1	69.1	85	64.4	0	1	112	0.00	29.846 
06:30	68.9	68.9	68.9	85	64.2	0	2	112	0.00	29.838 
06:35	68.9	68.9	68.9	86	64.5	0	1	112	0.00	29.838 
06:40	68.9	68.9	68.9	86	64.5	0	2	112	0.00	29.838 
06:45	68.9	68.9	68.9	87	64.9	0	3	112	0.00	29.844 
06:50	68.9	68.9	68.9	87	64.9	0	1	112	0.00	29.844 
06:55	69.1	69.1	69.1	87	65.1	0	1	112	0.00	29.844 
07:00	69.1	69.1	69.1	88	65.4	0	1	112	0.00	29.852 
07:05	69.4	69.4	69.4	88	65.7	0	2	135	0.00	29.852 
07:10	69.8	69.8	69.8	88	66.1	0	2	135	0.00	29.852 
07:15	70.1	70.1	70.1	88	66.4	0	1	135	0.00	29.865 
07:20	70.3	70.3	70.3	88	66.6	0	2	135	0.00	29.865 
07:25	70.8	70.8	70.8	88	67.1	0	1	158	0.00	29.865 
07:30	71.1	71.1	71.1	88	67.4	0	2	158	0.00	29.878 
07:35	71.3	71.3	71.3	87	67.2	0	2	158	0.00	29.878 
07:40	71.5	71.5	71.5	87	67.4	0	3	202	0.00	29.878 
07:45	71.6	71.6	71.6	87	67.5	0	1	202	0.00	29.880 
07:50	71.6	71.6	71.6	87	67.5	0	2	202	0.00	29.880 
07:55	71.8	71.8	71.8	87	67.7	0	1	202	0.00	29.880 
08:00	72.0	72.0	72.0	86	67.6	0	3	112	0.00	29.878 
08:05	72.3	72.3	72.3	86	67.9	0	1	112	0.00	29.878 
08:10	72.8	72.8	72.8	86	68.4	0	2	112	0.00	29.878 
08:15	73.9	73.9	73.9	84	68.7	0	3	0	0.00	29.876 
08:20	74.4	74.4	74.4	82	68.5	0	2	338	0.00	29.876 
08:25	74.7	74.7	74.7	81	68.5	1	3	338	0.00	29.876 
08:30	74.7	74.7	74.7	81	68.5	0	3	248	0.00	29.877 
08:35	74.6	74.6	74.6	81	68.4	1	4	248	0.00	29.877 
08:40	74.6	74.6	74.6	81	68.4	1	6	248	0.00	29.877 
08:45	74.7	74.7	74.7	81	68.5	0	2	248	0.00	29.884 
08:50	74.7	74.7	74.7	81	68.5	0	1	338	0.00	29.884 
08:55	74.7	74.7	74.7	81	68.5	1	2	270	0.00	29.884 
09:00	74.9	74.9	74.9	81	68.7	1	2	270	0.00	29.887 
09:05	75.3	75.3	75.9	81	69.1	0	1	270	0.00	29.887 
09:10	75.4	75.4	76.1	80	68.8	0	2	270	0.00	29.887 
09:15	75.4	75.4	76.2	79	68.4	1	4	270	0.00	29.892 
09:20	75.6	75.6	76.4	80	69.0	0	4	45	0.00	29.892 
09:25	75.6	75.6	76.5	79	68.6	0	3	45	0.00	29.892 
09:30	75.8	75.8	76.8	79	68.8	0	3	292	0.00	29.885 
09:35	75.8	75.8	76.8	79	68.8	0	2	292	0.00	29.885 
09:40	76.0	76.0	77.1	79	69.0	0	3	315	0.00	29.885 
09:45	76.0	76.0	77.1	79	69.0	0	3	315	0.00	29.881 
09:50	76.1	76.1	77.3	78	68.7	0	4	315	0.00	29.881 
09:55	76.3	76.3	77.6	78	68.9	0	2	270	0.00	29.881 
10:00	76.5	76.5	77.9	77	68.7	0	2	270	0.00	29.876 
10:05	76.7	76.7	78.2	77	68.9	0	1	270	0.00	29.876 
10:10	76.7	76.7	78.2	77	68.9	1	3	270	0.00	29.876 
10:15	76.7	76.7	78.2	77	68.9	0	1	315	0.00	29.878 
10:20	76.7	76.7	78.2	77	68.9	0	3	315	0.00	29.878 
10:25	76.7	76.7	78.2	77	68.9	0	1	112	0.00	29.878 
10:30	76.7	76.7	78.2	77	68.9	0	3	112	0.00	29.865 
10:35	77.0	77.0	78.7	77	69.2	0	1	315	0.00	29.865 
10:40	77.2	77.2	79.0	75	68.6	0	2	315	0.00	29.865 
10:45	77.4	77.4	79.3	75	68.8	0	2	315	0.00	29.867 
10:50	77.6	77.6	79.6	75	69.0	0	1	315	0.00	29.867 
10:55	77.6	77.6	79.6	74	68.6	0	1	315	0.00	29.867 
11:00	77.7	77.7	79.7	74	68.7	0	0	---	0.00	29.865 
11:05	77.7	77.7	79.7	74	68.7	0	2	315	0.00	29.865 
11:10	77.7	77.7	79.7	73	68.3	1	5	112	0.00	29.865 
11:15	77.7	77.7	79.7	74	68.7	0	2	112	0.00	29.865 
11:20	78.5	78.5	80.9	73	69.1	0	1	112	0.00	29.865 
11:25	79.0	79.0	81.5	71	68.8	0	1	112	0.00	29.865 
11:30	79.6	79.6	82.4	71	69.3	0	3	112	0.00	29.858 
11:35	80.3	80.3	83.2	68	68.8	0	2	112	0.00	29.858 
11:40	80.7	80.7	83.8	68	69.1	1	3	90	0.00	29.858 
11:45	80.7	80.7	83.7	67	68.7	1	2	68	0.00	29.859 
11:50	80.7	80.7	83.5	66	68.3	1	3	202	0.00	29.859 
11:55	80.9	80.9	84.1	68	69.3	0	3	270	0.00	29.859 
12:00	81.1	81.1	84.0	65	68.2	1	3	270	0.00	29.865 
12:05	81.1	81.1	84.0	65	68.2	0	1	248	0.00	29.865 
12:10	81.4	81.4	84.1	63	67.6	0	2	248	0.00	29.865 
12:15	81.6	81.6	84.4	63	67.8	1	3	248	0.00	29.873 
12:20	81.8	81.8	84.5	62	67.5	1	3	248	0.00	29.873 
12:25	81.8	81.8	84.7	63	67.9	1	3	248	0.00	29.873 
12:30	82.2	82.2	85.1	62	67.9	1	4	248	0.00	29.875 
12:35	82.6	82.6	85.5	61	67.8	1	4	248	0.00	29.875 
12:40	83.2	83.2	86.0	59	67.4	2	6	248	0.00	29.875 
12:45	83.4	83.4	86.3	59	67.5	2	9	270	0.00	29.861 
12:50	84.0	84.0	87.0	58	67.6	1	5	270	0.00	29.861 
12:55	84.3	84.3	87.2	57	67.4	2	4	90	0.00	29.861 
13:00	84.3	84.3	87.2	57	67.4	1	5	270	0.00	29.859 
13:05	84.5	84.5	87.5	57	67.6	1	3	270	0.00	29.859 
13:10	84.5	84.5	87.3	56	67.0	1	4	248	0.00	29.859 
13:15	84.7	84.7	86.8	53	65.6	2	6	112	0.00	29.849 
13:20	84.3	84.3	86.5	54	65.8	2	6	112	0.00	29.849 
13:25	84.3	84.3	87.0	56	66.9	1	5	68	0.00	29.849 
13:30	84.5	84.5	87.0	55	66.5	2	7	90	0.00	29.848 
13:35	84.9	84.9	87.1	53	65.8	2	6	90	0.00	29.848 
13:40	85.3	85.3	87.7	53	66.2	2	7	270	0.00	29.848 
13:45	85.5	85.5	87.4	51	65.3	2	6	270	0.00	29.846 
13:50	85.7	85.7	88.0	52	66.0	2	6	90	0.00	29.846 
13:55	86.1	86.1	88.3	51	65.8	1	4	90	0.00	29.846 
14:00	86.3	86.3	88.6	51	66.0	1	7	248	0.00	29.832 
14:05	86.5	86.5	88.9	51	66.2	2	5	90	0.00	29.832 
14:10	86.5	86.5	88.9	51	66.2	2	10	90	0.00	29.832 
14:15	86.7	86.7	89.3	51	66.4	2	5	112	0.00	29.826 
14:20	87.0	87.0	88.8	48	64.9	2	7	112	0.00	29.826 
14:25	86.5	86.5	88.6	50	65.6	2	5	90	0.00	29.826 
14:30	86.5	86.5	89.3	52	66.7	1	4	315	0.00	29.826 
14:35	86.1	86.1	88.0	50	65.3	2	6	90	0.00	29.826 
14:40	86.3	86.3	88.6	51	66.0	2	7	90	0.00	29.826 
14:45	86.5	86.5	88.1	48	64.4	1	3	270	0.00	29.821 
14:50	86.3	86.3	88.3	50	65.4	2	9	90	0.00	29.821 
14:55	86.3	86.3	87.8	48	64.3	2	6	90	0.00	29.821 
15:00	86.5	86.5	88.1	48	64.4	1	6	112	0.00	29.818 
15:05	86.1	86.1	88.0	50	65.3	2	6	68	0.00	29.818 
15:10	85.7	85.7	87.7	51	65.5	1	3	45	0.00	29.818 
15:15	86.1	86.1	87.8	49	64.7	1	6	292	0.00	29.822 
15:20	86.1	86.1	88.0	50	65.3	1	5	112	0.00	29.822 
15:25	85.9	85.9	87.5	49	64.5	1	4	180	0.00	29.822 
15:30	85.9	85.9	87.2	48	63.9	1	4	338	0.00	29.814 
15:35	85.9	85.9	87.5	49	64.5	2	5	248	0.00	29.814 
15:40	86.1	86.1	88.0	50	65.3	1	3	338	0.00	29.814 
15:45	86.5	86.5	87.8	47	63.8	1	4	338	0.00	29.809 
15:50	87.2	87.2	89.1	48	65.1	2	5	68	0.00	29.809 
15:55	87.8	87.8	89.4	46	64.4	2	6	90	0.00	29.809 
16:00	87.8	87.8	89.4	46	64.4	2	8	270	0.00	29.799 
16:05	87.8	87.8	88.8	44	63.1	2	6	112	0.00	29.799 
16:10	87.8	87.8	88.8	44	63.1	2	7	270	0.00	29.799 
16:15	88.0	88.0	89.7	46	64.6	2	7	270	0.00	29.799 
16:20	88.0	88.0	89.4	45	64.0	2	7	248	0.00	29.799 
16:25	87.6	87.6	88.8	45	63.6	2	5	270	0.00	29.799 
16:30	87.0	87.0	87.9	45	63.1	2	6	248	0.00	29.801 
16:35	86.7	86.7	88.1	47	64.0	2	7	292	0.00	29.801 
16:40	86.7	86.7	87.8	46	63.4	1	5	270	0.00	29.801 
16:45	87.0	87.0	88.2	46	63.7	2	10	270	0.00	29.791 
16:50	87.4	87.4	88.8	46	64.0	1	5	270	0.00	29.791 
16:55	87.6	87.6	88.8	45	63.6	2	7	90	0.00	29.791 
17:00	87.2	87.2	88.5	46	63.9	3	14	270	0.00	29.800 
17:05	87.2	87.2	88.8	47	64.5	2	9	248	0.00	29.800 
17:10	87.0	87.0	88.8	48	64.9	3	7	248	0.00	29.800 
17:15	86.1	86.1	87.8	49	64.7	2	10	292	0.00	29.787 
17:20	85.7	85.7	86.4	46	62.5	3	7	270	0.00	29.787 
17:25	85.7	85.7	86.7	47	63.1	2	6	0	0.00	29.787 
17:30	86.3	86.3	87.2	46	63.0	2	5	315	0.00	29.788 
17:35	86.7	86.7	87.8	46	63.4	2	9	292	0.00	29.788 
17:40	87.0	87.0	88.5	47	64.3	1	4	270	0.00	29.788 
17:45	87.0	87.0	88.2	46	63.7	2	6	248	0.00	29.788 
17:50	87.0	87.0	88.2	46	63.7	2	6	248	0.00	29.788 
17:55	87.2	87.2	88.5	46	63.9	2	5	248	0.00	29.788 
18:00	87.0	87.0	87.9	45	63.1	2	6	248	0.00	29.800 
18:05	86.5	86.5	87.2	45	62.6	2	5	248	0.00	29.800 
18:10	86.3	86.3	87.2	46	63.0	2	5	248	0.00	29.800 
18:15	85.9	85.9	86.7	46	62.7	2	4	338	0.00	29.805 
18:20	85.3	85.3	85.9	46	62.1	2	6	292	0.00	29.805 
18:25	84.9	84.9	85.4	46	61.8	2	9	292	0.00	29.805 
18:30	84.5	84.5	85.1	47	62.0	3	7	248	0.00	29.809 
18:35	84.3	84.3	85.1	48	62.4	1	5	248	0.00	29.809 
18:40	84.3	84.3	85.1	48	62.4	1	5	270	0.00	29.809 
18:45	84.1	84.1	85.0	49	62.8	1	4	292	0.00	29.804 
18:50	84.0	84.0	85.1	50	63.3	1	5	248	0.00	29.804 
18:55	84.0	84.0	85.1	50	63.3	2	7	248	0.00	29.804 
19:00	83.8	83.8	85.1	51	63.7	1	6	270	0.00	29.802 
19:05	83.8	83.8	85.1	51	63.7	2	7	292	0.00	29.802 
19:10	83.6	83.6	84.6	50	63.0	2	5	248	0.00	29.802 
19:15	83.4	83.4	84.4	50	62.8	1	6	248	0.00	29.789 
19:20	83.2	83.2	84.1	50	62.6	1	4	270	0.00	29.789 
19:25	83.2	83.2	84.1	50	62.6	1	3	270	0.00	29.789 
19:30	83.0	83.0	83.9	50	62.4	1	2	0	0.00	29.794 
19:35	82.8	82.8	83.7	50	62.2	1	9	270	0.00	29.794 
19:40	82.8	82.8	83.8	51	62.8	1	3	225	0.00	29.794 
19:45	82.8	82.8	83.8	51	62.8	0	4	292	0.00	29.795 
19:50	82.6	82.6	83.8	52	63.2	1	5	270	0.00	29.795 
19:55	82.4	82.4	83.5	52	63.0	1	5	292	0.00	29.795 
20:00	82.2	82.2	83.5	53	63.3	1	4	270	0.00	29.798 
20:05	82.0	82.0	83.2	53	63.2	1	3	270	0.00	29.798 
20:10	81.8	81.8	83.0	53	63.0	1	4	315	0.00	29.798 
20:15	81.8	81.8	83.0	53	63.0	1	4	248	0.00	29.789 
20:20	81.6	81.6	82.9	54	63.3	1	3	248	0.00	29.789 
20:25	81.6	81.6	82.9	54	63.3	1	3	248	0.00	29.789 
20:30	81.4	81.4	82.8	55	63.7	0	4	248	0.00	29.786 
20:35	81.1	81.1	82.5	55	63.4	0	3	90	0.00	29.786 
20:40	80.7	80.7	82.0	55	63.0	0	3	90	0.00	29.786 
20:45	80.5	80.5	81.9	56	63.3	0	1	90	0.00	29.785 
20:50	80.3	80.3	81.8	57	63.7	0	2	90	0.00	29.785 
20:55	80.1	80.1	81.6	57	63.5	0	1	90	0.00	29.785 
21:00	79.9	79.9	81.4	57	63.3	1	3	90	0.00	29.787 
21:05	79.8	79.8	81.2	56	62.7	0	3	90	0.00	29.787 
21:10	79.8	79.8	81.2	56	62.7	0	3	270	0.00	29.787 
21:15	79.8	79.8	81.3	57	63.2	0	2	270	0.00	29.785 
21:20	79.4	79.4	80.9	57	62.8	0	1	270	0.00	29.785 
21:25	79.2	79.2	80.7	57	62.6	0	1	270	0.00	29.785 
21:30	78.8	78.8	80.3	58	62.8	0	1	270	0.00	29.786 
21:35	78.6	78.6	80.1	58	62.6	0	1	270	0.00	29.786 
21:40	78.5	78.5	80.0	58	62.5	0	0	---	0.00	29.786 
21:45	78.3	78.3	79.9	58	62.3	0	1	270	0.00	29.794 
21:50	78.1	78.1	79.7	59	62.6	0	1	270	0.00	29.794 
21:55	77.9	77.9	79.5	59	62.4	0	0	---	0.00	29.794 
22:00	77.7	77.7	79.4	59	62.2	0	1	270	0.00	29.800 
22:05	77.6	77.6	79.3	60	62.6	0	0	---	0.00	29.800 
22:10	77.2	77.2	78.9	60	62.2	0	0	---	0.00	29.800 
22:15	77.0	77.0	78.8	61	62.5	0	0	---	0.00	29.801 
22:20	76.7	76.7	78.5	61	62.2	0	0	---	0.00	29.801 
22:25	76.5	76.5	78.4	62	62.5	0	0	---	0.00	29.801 
22:30	76.1	76.1	78.0	62	62.1	0	0	---	0.00	29.801 
22:35	76.0	76.0	77.9	63	62.5	0	0	---	0.00	29.801 
22:40	76.0	76.0	77.9	63	62.5	0	0	---	0.00	29.801 
22:45	75.8	75.8	77.8	63	62.3	0	0	---	0.00	29.802 
22:50	75.6	75.6	77.6	64	62.5	0	0	---	0.00	29.802 
22:55	75.4	75.4	77.4	64	62.4	0	0	---	0.00	29.802 
23:00	75.3	75.3	77.3	65	62.7	0	0	---	0.00	29.810 
23:05	75.1	75.1	77.1	65	62.5	0	0	---	0.00	29.810 
23:10	74.9	74.9	74.9	65	62.3	0	0	---	0.00	29.810 
23:15	74.7	74.7	74.7	66	62.6	0	0	---	0.00	29.801 
23:20	74.6	74.6	74.6	67	62.9	0	1	270	0.00	29.801 
23:25	74.6	74.6	74.6	67	62.9	0	1	270	0.00	29.801 
23:30	74.7	74.7	74.7	67	63.0	0	1	270	0.00	29.797 
23:35	74.7	74.7	74.7	67	63.0	0	0	---	0.00	29.797 
23:40	74.7	74.7	74.7	68	63.4	0	0	---	0.00	29.797 
23:45	74.6	74.6	74.6	68	63.3	0	1	270	0.00	29.801 
23:50	74.4	74.4	74.4	68	63.1	0	0	---	0.00	29.801 
23:55	74.2	74.2	74.2	69	63.4	0	0	---	0.00	29.801 

CoCoRaHS
IN-AL-39
A2 Web Hosting
Creative Commons License
GoDaddy
search engine by freefind advanced

loaded 2018-11-19 19:31:53 • last modified 2010-11-18 10:43:29
Privacy PolicyDisclaimer
• wx.awcolley.com is powered by PmWiki v.2002016 •
• all content (unless otherwise noted) © 2018 A W Colley